createdAt,value
2022-12-17T00:01:25.647Z,0.89
2022-12-17T00:04:12.669Z,0.89
2022-12-17T00:07:01.133Z,0.99
2022-12-17T00:09:50.418Z,0.91
2022-12-17T00:12:38.166Z,0.91
2022-12-17T00:15:25.489Z,0.86
2022-12-17T00:18:12.298Z,0.88
2022-12-17T00:20:59.230Z,0.91
2022-12-17T00:23:47.266Z,0.89
2022-12-17T00:26:34.127Z,0.87
2022-12-17T00:29:20.696Z,0.78
2022-12-17T00:32:07.853Z,0.92
2022-12-17T00:34:54.501Z,0.97
2022-12-17T00:37:44.084Z,0.58
2022-12-17T00:40:32.419Z,0.60
2022-12-17T00:43:20.452Z,0.37
2022-12-17T00:46:08.784Z,0.35
2022-12-17T00:48:56.378Z,0.55
2022-12-17T00:51:58.251Z,0.54
2022-12-17T00:54:45.432Z,0.57
2022-12-17T00:57:33.382Z,0.52
2022-12-17T01:00:20.467Z,0.35
2022-12-17T01:03:07.456Z,0.32
2022-12-17T01:05:54.452Z,0.30
2022-12-17T01:08:41.156Z,0.34
2022-12-17T01:11:28.463Z,0.50
2022-12-17T01:14:16.747Z,0.28
2022-12-17T01:17:04.556Z,0.41
2022-12-17T01:19:51.266Z,0.19
2022-12-17T01:22:39.363Z,0.28
2022-12-17T01:25:26.737Z,0.44
2022-12-17T01:28:14.257Z,0.37
2022-12-17T01:31:02.530Z,0.45
2022-12-17T01:33:49.475Z,0.32
2022-12-17T01:36:36.499Z,0.40
2022-12-17T01:39:24.154Z,0.42
2022-12-17T01:42:11.167Z,0.52
2022-12-17T01:45:08.024Z,0.41
2022-12-17T01:48:02.676Z,0.35
2022-12-17T01:50:52.968Z,0.54
2022-12-17T01:53:44.799Z,0.59
2022-12-17T01:56:32.414Z,0.61
2022-12-17T01:59:19.537Z,0.27
2022-12-17T02:02:06.619Z,0.49
2022-12-17T02:04:56.162Z,0.44
2022-12-17T02:07:56.599Z,0.35
2022-12-17T02:10:52.492Z,0.20
2022-12-17T02:13:48.591Z,0.33
2022-12-17T02:16:40.471Z,0.15
2022-12-17T02:19:40.048Z,0.17
2022-12-17T02:22:48.809Z,0.10
2022-12-17T02:26:18.392Z,-0.06
2022-12-17T02:29:10.331Z,-0.44
2022-12-17T02:31:59.191Z,-0.37
2022-12-17T02:34:46.232Z,-0.34
2022-12-17T02:37:34.025Z,-0.25
2022-12-17T02:40:22.910Z,-0.02
2022-12-17T02:43:10.562Z,0.16
2022-12-17T02:46:00.452Z,0.19
2022-12-17T02:48:47.662Z,-0.19
2022-12-17T02:51:34.729Z,-0.30
2022-12-17T02:54:22.515Z,-0.02
2022-12-17T02:57:09.476Z,-0.14
2022-12-17T02:59:56.319Z,-0.13
2022-12-17T03:02:45.255Z,-0.15
2022-12-17T03:05:47.551Z,-0.31
2022-12-17T03:08:34.743Z,-0.16
2022-12-17T03:11:22.049Z,-0.34
2022-12-17T03:14:09.292Z,-0.39
2022-12-17T03:16:57.393Z,-0.34
2022-12-17T03:19:46.036Z,-0.35
2022-12-17T03:22:32.791Z,-0.17
2022-12-17T03:25:19.856Z,-0.20
2022-12-17T03:28:06.751Z,-0.35
2022-12-17T03:36:12.193Z,-0.02
2022-12-17T03:39:02.341Z,-0.03
2022-12-17T03:41:49.381Z,0.04
2022-12-17T03:44:36.225Z,-0.09
2022-12-17T03:47:23.157Z,-0.37
2022-12-17T03:50:10.138Z,-0.09
2022-12-17T03:52:58.224Z,-0.21
2022-12-17T03:55:45.228Z,-0.29
2022-12-17T03:58:31.981Z,-0.20
2022-12-17T04:01:19.195Z,-0.11
2022-12-17T04:04:06.211Z,-0.40
2022-12-17T04:06:49.874Z,-0.13
2022-12-17T04:09:38.069Z,-0.09
2022-12-17T04:12:25.023Z,-0.07
2022-12-17T04:15:08.030Z,-0.17
2022-12-17T04:17:55.376Z,-0.11
2022-12-17T04:20:42.255Z,0.03
2022-12-17T04:23:25.567Z,0.08
2022-12-17T04:26:13.646Z,0.11
2022-12-17T04:29:00.567Z,-0.02
2022-12-17T04:31:47.616Z,-0.12
2022-12-17T04:34:34.648Z,-0.05
2022-12-17T04:37:21.627Z,-0.12
2022-12-17T04:40:08.521Z,-0.02
2022-12-17T04:42:56.700Z,-0.07
2022-12-17T04:45:43.682Z,-0.05
2022-12-17T04:48:30.486Z,-0.11
2022-12-17T04:51:17.466Z,-0.24
2022-12-17T04:54:04.380Z,-0.21
2022-12-17T04:56:51.337Z,-0.29
2022-12-17T04:59:39.736Z,-0.34
2022-12-17T05:02:42.686Z,-0.48
2022-12-17T05:05:30.250Z,-0.50
2022-12-17T05:08:19.803Z,-0.55
2022-12-17T05:11:06.789Z,-0.51
2022-12-17T05:13:53.864Z,-0.35
2022-12-17T05:16:41.839Z,-0.36
2022-12-17T05:19:29.093Z,-0.52
2022-12-17T05:22:21.605Z,-0.34
2022-12-17T05:25:10.071Z,-0.40
2022-12-17T05:27:56.872Z,-0.48
2022-12-17T05:30:44.078Z,-0.50
2022-12-17T05:33:32.361Z,-0.42
2022-12-17T05:36:20.072Z,-0.49
2022-12-17T05:39:06.816Z,-0.35
2022-12-17T05:41:53.925Z,-0.25
2022-12-17T05:44:40.139Z,-0.48
2022-12-17T05:47:27.272Z,-0.52
2022-12-17T05:50:15.286Z,-0.53
2022-12-17T05:53:02.452Z,-0.61
2022-12-17T05:55:49.345Z,-0.83
2022-12-17T05:58:36.459Z,-0.88
2022-12-17T06:01:24.705Z,-1.09
2022-12-17T06:04:11.719Z,-0.95
2022-12-17T06:07:00.034Z,-1.16
2022-12-17T06:09:47.126Z,-1.08
2022-12-17T06:12:33.941Z,-0.85
2022-12-17T06:15:21.042Z,-0.66
2022-12-17T06:18:16.641Z,-0.55
2022-12-17T06:21:05.090Z,-0.55
2022-12-17T06:23:53.430Z,-0.39
2022-12-17T06:26:40.360Z,-0.37
2022-12-17T06:29:27.279Z,-0.27
2022-12-17T06:32:14.542Z,-0.19
2022-12-17T06:35:01.758Z,-0.32
2022-12-17T06:37:48.948Z,-0.40
2022-12-17T06:40:37.131Z,-0.25
2022-12-17T06:43:23.887Z,-0.33
2022-12-17T06:46:25.889Z,-0.33
2022-12-17T06:49:12.887Z,-0.19
2022-12-17T06:51:59.619Z,-0.15
2022-12-17T06:54:47.311Z,-0.09
2022-12-17T06:57:40.455Z,0.02
2022-12-17T07:00:30.247Z,0.01
2022-12-17T07:03:25.501Z,0.13
2022-12-17T07:06:12.898Z,-0.02
2022-12-17T07:08:59.727Z,-0.02
2022-12-17T07:11:46.655Z,0.03
2022-12-17T07:14:35.084Z,0.08
2022-12-17T07:17:22.397Z,0.18
2022-12-17T07:20:09.390Z,0.28
2022-12-17T07:22:56.221Z,0.39
2022-12-17T07:25:46.205Z,0.35
2022-12-17T07:28:33.831Z,0.33
2022-12-17T07:31:22.014Z,0.41
2022-12-17T07:34:09.079Z,0.54
2022-12-17T07:36:57.087Z,0.45
2022-12-17T07:39:44.190Z,0.49
2022-12-17T07:42:30.813Z,0.49
2022-12-17T07:45:26.116Z,0.45
2022-12-17T07:48:14.796Z,0.58
2022-12-17T07:51:01.869Z,0.53
2022-12-17T07:53:48.910Z,0.71
2022-12-17T07:56:36.067Z,0.70
2022-12-17T07:59:23.228Z,0.79
2022-12-17T08:02:11.048Z,0.76
2022-12-17T08:04:59.874Z,0.80
2022-12-17T08:07:46.921Z,0.81
2022-12-17T08:10:33.620Z,1.02
2022-12-17T08:13:22.642Z,1.09
2022-12-17T08:16:11.142Z,0.99
2022-12-17T08:18:58.551Z,1.03
2022-12-17T08:21:46.599Z,1.09
2022-12-17T08:24:33.959Z,0.82
2022-12-17T08:27:20.662Z,0.96
2022-12-17T08:30:22.510Z,0.58
2022-12-17T08:33:09.478Z,0.55
2022-12-17T08:35:56.436Z,0.49
2022-12-17T08:38:44.637Z,0.42
2022-12-17T08:41:32.061Z,0.55
2022-12-17T08:44:18.315Z,0.55
2022-12-17T08:47:05.445Z,0.62
2022-12-17T08:49:52.548Z,0.55
2022-12-17T08:52:39.557Z,0.61
2022-12-17T08:55:28.298Z,0.93
2022-12-17T08:58:16.623Z,1.19
2022-12-17T09:01:04.238Z,1.50
2022-12-17T09:03:51.701Z,1.84
2022-12-17T09:06:39.445Z,2.03
2022-12-17T09:09:26.746Z,2.20
2022-12-17T09:12:14.795Z,2.56
2022-12-17T09:15:01.948Z,2.79
2022-12-17T09:17:48.492Z,2.73
2022-12-17T09:20:35.525Z,2.50
2022-12-17T09:23:22.602Z,2.62
2022-12-17T09:26:12.166Z,2.11
2022-12-17T09:29:00.196Z,2.17
2022-12-17T09:31:48.600Z,2.04
2022-12-17T09:34:35.605Z,2.10
2022-12-17T09:37:23.320Z,2.17
2022-12-17T09:40:10.134Z,2.42
2022-12-17T09:43:04.031Z,2.56
2022-12-17T09:45:59.952Z,3.11
2022-12-17T09:48:54.739Z,3.92
2022-12-17T09:51:43.699Z,4.49
2022-12-17T09:54:38.920Z,5.46
2022-12-17T09:57:32.551Z,5.45
2022-12-17T10:00:21.524Z,7.13
2022-12-17T10:03:10.175Z,6.09
2022-12-17T10:05:59.756Z,4.47
2022-12-17T10:08:47.194Z,4.37
2022-12-17T10:11:39.855Z,3.99
2022-12-17T10:14:35.027Z,4.01
2022-12-17T10:17:22.782Z,3.98
2022-12-17T10:20:13.877Z,4.09
2022-12-17T10:23:05.743Z,4.03
2022-12-17T10:25:53.433Z,3.59
2022-12-17T10:28:43.134Z,3.71
2022-12-17T10:31:34.961Z,3.44
2022-12-17T10:34:26.365Z,3.23
2022-12-17T10:37:20.130Z,3.29
2022-12-17T10:40:16.781Z,3.24
2022-12-17T10:43:04.295Z,3.14
2022-12-17T10:45:49.789Z,2.94
2022-12-17T10:48:38.221Z,2.76
2022-12-17T10:51:31.979Z,2.91
2022-12-17T10:54:28.999Z,3.19
2022-12-17T10:57:24.680Z,3.22
2022-12-17T11:00:11.618Z,3.10
2022-12-17T11:03:16.486Z,3.04
2022-12-17T11:06:03.533Z,3.28
2022-12-17T11:08:51.202Z,3.43
2022-12-17T11:11:39.718Z,3.10
2022-12-17T11:14:28.959Z,3.26
2022-12-17T11:17:18.799Z,3.41
2022-12-17T11:20:11.513Z,3.65
2022-12-17T11:23:02.984Z,3.46
2022-12-17T11:26:00.528Z,3.58
2022-12-17T11:28:51.738Z,3.43
2022-12-17T11:32:12.434Z,3.14
2022-12-17T11:35:14.881Z,3.32
2022-12-17T11:38:09.487Z,3.45
2022-12-17T11:40:59.808Z,3.02
2022-12-17T11:43:56.017Z,3.36
2022-12-17T11:46:57.460Z,3.66
2022-12-17T11:49:57.209Z,4.02
2022-12-17T11:52:54.409Z,4.46
2022-12-17T11:55:52.129Z,4.68
2022-12-17T11:58:48.272Z,4.43
2022-12-17T12:01:46.042Z,3.71
2022-12-17T12:04:45.530Z,3.61
2022-12-17T12:07:39.202Z,3.50
2022-12-17T12:10:33.648Z,3.24
2022-12-17T12:13:31.744Z,3.04
2022-12-17T12:16:30.225Z,3.13
2022-12-17T12:19:27.682Z,2.92
2022-12-17T12:22:30.364Z,3.06
2022-12-17T12:25:49.836Z,3.20
2022-12-17T12:28:48.800Z,3.49
2022-12-17T12:31:45.928Z,3.35
2022-12-17T12:34:38.666Z,3.34
2022-12-17T12:37:30.246Z,3.23
2022-12-17T12:40:23.049Z,3.34
2022-12-17T12:43:16.484Z,3.11
2022-12-17T12:46:13.687Z,3.02
2022-12-17T12:49:06.919Z,3.03
2022-12-17T12:51:56.710Z,3.10
2022-12-17T12:54:47.362Z,3.15
2022-12-17T12:57:49.285Z,2.96
2022-12-17T13:00:55.274Z,3.05
2022-12-17T13:03:48.650Z,2.96
2022-12-17T13:06:43.453Z,2.85
2022-12-17T13:09:35.424Z,2.53
2022-12-17T13:12:34.852Z,2.66
2022-12-17T13:15:22.740Z,2.63
2022-12-17T13:18:05.036Z,2.58
2022-12-17T13:20:36.021Z,2.56
2022-12-17T13:23:26.796Z,2.53
2022-12-17T13:26:17.123Z,2.56
2022-12-17T13:29:04.461Z,2.45
2022-12-17T13:31:48.906Z,2.25
2022-12-17T13:34:27.223Z,2.35
2022-12-17T13:37:02.914Z,2.21
2022-12-17T13:39:42.449Z,2.34
2022-12-17T13:42:28.160Z,2.34
2022-12-17T13:44:58.702Z,2.40
2022-12-17T13:47:30.691Z,2.37
2022-12-17T13:50:32.916Z,2.10
2022-12-17T13:52:54.619Z,2.05
2022-12-17T13:55:29.177Z,2.01
2022-12-17T13:57:58.636Z,2.14
2022-12-17T14:00:30.512Z,2.05
2022-12-17T14:03:10.801Z,1.94
2022-12-17T14:05:44.692Z,1.95
2022-12-17T14:08:18.512Z,1.84
2022-12-17T14:11:14.635Z,1.83
2022-12-17T14:13:44.001Z,1.88
2022-12-17T14:16:17.833Z,1.77
2022-12-17T14:18:51.058Z,1.67
2022-12-17T14:21:21.462Z,1.83
2022-12-17T14:23:53.074Z,1.88
2022-12-17T14:26:24.412Z,1.88
2022-12-17T14:28:55.879Z,1.87
2022-12-17T14:31:28.764Z,1.79
2022-12-17T14:34:08.539Z,1.63
2022-12-17T14:36:39.861Z,1.66
2022-12-17T14:39:24.051Z,1.77
2022-12-17T14:42:14.449Z,1.71
2022-12-17T14:44:52.948Z,1.77
2022-12-17T14:47:25.923Z,1.69
2022-12-17T14:50:05.658Z,1.62
2022-12-17T14:52:46.297Z,1.49
2022-12-17T14:55:35.496Z,1.50
2022-12-17T14:58:21.477Z,1.37
2022-12-17T15:00:54.963Z,1.43
2022-12-17T15:03:28.288Z,1.35
2022-12-17T15:06:02.355Z,1.39
2022-12-17T15:08:38.681Z,1.39
2022-12-17T15:11:08.470Z,1.44
2022-12-17T15:13:39.492Z,1.37
2022-12-17T15:16:09.343Z,1.52
2022-12-17T15:18:39.651Z,1.45
2022-12-17T15:21:12.036Z,1.45
2022-12-17T15:23:44.933Z,1.64
2022-12-17T15:26:15.537Z,1.67
2022-12-17T15:28:47.922Z,1.72
2022-12-17T15:31:21.832Z,1.62
2022-12-17T15:33:54.554Z,1.55
2022-12-17T15:36:23.906Z,1.41
2022-12-17T15:38:53.599Z,1.27
2022-12-17T15:41:40.452Z,1.29
2022-12-17T15:44:11.540Z,1.27
2022-12-17T15:46:40.975Z,1.38
2022-12-17T15:49:10.754Z,1.30
2022-12-17T15:51:40.100Z,1.39
2022-12-17T15:54:09.695Z,1.27
2022-12-17T15:56:39.228Z,1.32
2022-12-17T15:59:10.215Z,1.14
2022-12-17T16:01:40.593Z,1.17
2022-12-17T16:04:19.085Z,1.16
2022-12-17T16:06:53.580Z,1.23
2022-12-17T16:09:26.043Z,1.24
2022-12-17T16:11:56.271Z,1.09
2022-12-17T16:14:27.647Z,1.02
2022-12-17T16:16:56.974Z,1.02
2022-12-17T16:19:26.714Z,1.02
2022-12-17T16:21:56.232Z,1.08
2022-12-17T16:24:26.238Z,0.93
2022-12-17T16:26:59.417Z,0.88
2022-12-17T16:29:33.811Z,0.77
2022-12-17T16:32:03.242Z,0.66
2022-12-17T16:34:32.972Z,0.72
2022-12-17T16:37:02.308Z,0.65
2022-12-17T16:39:33.320Z,0.48
2022-12-17T16:42:02.851Z,0.52
2022-12-17T16:44:34.060Z,0.51
2022-12-17T16:47:03.486Z,0.51
2022-12-17T16:49:33.360Z,0.39
2022-12-17T16:52:03.671Z,0.33
2022-12-17T16:54:34.228Z,0.40
2022-12-17T16:57:03.981Z,0.41
2022-12-17T16:59:35.221Z,0.30
2022-12-17T17:02:04.724Z,0.43
2022-12-17T17:04:35.324Z,0.41
2022-12-17T17:07:04.713Z,0.30
2022-12-17T17:09:34.668Z,0.18
2022-12-17T17:12:04.038Z,0.11
2022-12-17T17:14:35.494Z,0.05
2022-12-17T17:17:04.917Z,0.04
2022-12-17T17:19:34.810Z,0.12
2022-12-17T17:22:04.439Z,0.09
2022-12-17T17:24:34.212Z,-0.10
2022-12-17T17:27:03.622Z,-0.23
2022-12-17T17:29:34.735Z,-0.21
2022-12-17T17:32:13.012Z,-0.24
2022-12-17T17:34:43.515Z,-0.21
2022-12-17T17:37:13.602Z,-0.33
2022-12-17T17:39:43.445Z,-0.64
2022-12-17T17:42:13.048Z,-0.46
2022-12-17T17:44:44.512Z,-0.49
2022-12-17T17:47:13.997Z,-0.62
2022-12-17T17:49:43.932Z,-0.68
2022-12-17T17:52:13.265Z,-0.73
2022-12-17T17:54:43.189Z,-0.69
2022-12-17T17:57:12.903Z,-0.68
2022-12-17T17:59:44.013Z,-0.60
2022-12-17T18:02:14.039Z,-0.62
2022-12-17T18:04:43.921Z,-0.56
2022-12-17T18:07:25.214Z,-0.55
2022-12-17T18:09:56.314Z,-0.67
2022-12-17T18:12:42.937Z,-0.59
2022-12-17T18:15:16.423Z,-0.56
2022-12-17T18:17:47.813Z,-0.57
2022-12-17T18:20:18.042Z,-0.62
2022-12-17T18:22:47.674Z,-0.53
2022-12-17T18:25:18.022Z,-0.53
2022-12-17T18:27:47.557Z,-0.59
2022-12-17T18:30:18.848Z,-0.56
2022-12-17T18:32:50.062Z,-0.55
2022-12-17T18:35:20.043Z,-0.42
2022-12-17T18:37:49.554Z,-0.42
2022-12-17T18:40:19.260Z,-0.43
2022-12-17T18:43:06.139Z,-0.50
2022-12-17T18:45:38.439Z,-0.38
2022-12-17T18:48:08.262Z,-0.37
2022-12-17T18:50:39.335Z,-0.45
2022-12-17T18:53:08.712Z,-0.42
2022-12-17T18:55:40.660Z,-0.41
2022-12-17T18:58:11.103Z,-0.40
2022-12-17T19:00:42.418Z,-0.48
2022-12-17T19:03:13.068Z,-0.29
2022-12-17T19:05:46.505Z,-0.45
2022-12-17T19:08:17.649Z,-0.37
2022-12-17T19:10:47.247Z,-0.31
2022-12-17T19:13:16.790Z,-0.24
2022-12-17T19:15:47.992Z,-0.19
2022-12-17T19:18:17.348Z,-0.33
2022-12-17T19:20:47.936Z,-0.33
2022-12-17T19:23:17.217Z,-0.27
2022-12-17T19:25:46.822Z,-0.25
2022-12-17T19:28:17.194Z,-0.39
2022-12-17T19:30:48.277Z,-0.42
2022-12-17T19:33:19.154Z,-0.31
2022-12-17T19:35:48.758Z,-0.41
2022-12-17T19:38:20.237Z,-0.43
2022-12-17T19:40:52.291Z,-0.39
2022-12-17T19:43:23.288Z,-0.33
2022-12-17T19:45:54.527Z,-0.32
2022-12-17T19:48:24.285Z,-0.39
2022-12-17T19:50:58.452Z,-0.34
2022-12-17T19:53:29.180Z,-0.41
2022-12-17T19:56:10.247Z,-0.30
2022-12-17T19:58:41.187Z,-0.35
2022-12-17T20:01:15.650Z,-0.43
2022-12-17T20:03:46.219Z,-0.37
2022-12-17T20:06:18.347Z,-0.65
2022-12-17T20:08:47.853Z,-0.56
2022-12-17T20:11:34.324Z,-0.80
2022-12-17T20:14:06.590Z,-0.65
2022-12-17T20:16:40.412Z,-0.64
2022-12-17T20:19:13.009Z,-0.83
2022-12-17T20:21:43.154Z,-0.80
2022-12-17T20:24:14.475Z,-0.72
2022-12-17T20:26:46.607Z,-0.87
2022-12-17T20:29:16.090Z,-0.77
2022-12-17T20:31:49.934Z,-0.78
2022-12-17T20:34:23.489Z,-0.79
2022-12-17T20:36:56.186Z,-0.78
2022-12-17T20:39:28.139Z,-0.90
2022-12-17T20:41:59.308Z,-0.80
2022-12-17T20:44:29.117Z,-0.85
2022-12-17T20:47:01.335Z,-0.84
2022-12-17T20:49:31.654Z,-0.92
2022-12-17T20:52:02.195Z,-1.00
2022-12-17T20:54:31.875Z,-1.10
2022-12-17T20:57:01.296Z,-1.18
2022-12-17T20:59:31.063Z,-1.22
2022-12-17T21:02:01.916Z,-1.22
2022-12-17T21:04:31.613Z,-1.36
2022-12-17T21:07:01.213Z,-1.41
2022-12-17T21:09:31.791Z,-1.52
2022-12-17T21:12:01.082Z,-1.56
2022-12-17T21:14:35.464Z,-1.59
2022-12-17T21:17:06.917Z,-1.63
2022-12-17T21:19:36.833Z,-1.73
2022-12-17T21:22:06.926Z,-1.76
2022-12-17T21:24:42.122Z,-1.83
2022-12-17T21:27:14.938Z,-1.81
2022-12-17T21:29:45.353Z,-1.86
2022-12-17T21:32:17.184Z,-1.88
2022-12-17T21:34:46.998Z,-2.01
2022-12-17T21:37:16.447Z,-2.01
2022-12-17T21:39:46.686Z,-2.11
2022-12-17T21:42:33.611Z,-2.17
2022-12-17T21:45:03.566Z,-2.22
2022-12-17T21:47:34.657Z,-2.34
2022-12-17T21:50:04.408Z,-2.37
2022-12-17T21:52:33.722Z,-2.31
2022-12-17T21:55:03.852Z,-2.29
2022-12-17T21:57:33.182Z,-2.33
2022-12-17T22:00:02.879Z,-2.27
2022-12-17T22:02:35.254Z,-2.31
2022-12-17T22:05:05.281Z,-2.27
2022-12-17T22:07:35.474Z,-2.39
2022-12-17T22:10:34.652Z,-2.38
2022-12-17T22:13:18.758Z,-2.47
2022-12-17T22:15:48.770Z,-2.67
2022-12-17T22:18:19.553Z,-2.57
2022-12-17T22:20:59.489Z,-2.69
2022-12-17T22:23:28.932Z,-2.57
2022-12-17T22:25:58.873Z,-2.58
2022-12-17T22:28:28.121Z,-2.66
2022-12-17T22:31:15.174Z,-2.60
2022-12-17T22:34:59.319Z,-2.63
2022-12-17T22:39:34.043Z,-2.63
2022-12-17T22:44:28.919Z,-2.72
2022-12-17T22:44:44.078Z,-2.72
2022-12-17T22:45:42.281Z,-2.65
2022-12-17T22:48:14.951Z,-2.65
2022-12-17T22:51:05.504Z,-2.64
2022-12-17T22:53:35.648Z,-2.70
2022-12-17T22:56:19.710Z,-2.71
2022-12-17T22:58:58.383Z,-2.71
2022-12-17T23:01:28.012Z,-2.80
2022-12-17T23:03:58.611Z,-2.95
2022-12-17T23:06:30.218Z,-2.88
2022-12-17T23:09:00.214Z,-2.90
2022-12-17T23:11:31.478Z,-3.09
2022-12-17T23:14:04.729Z,-3.02
2022-12-17T23:16:34.036Z,-3.06
2022-12-17T23:19:05.000Z,-3.09
2022-12-17T23:21:36.135Z,-3.19
2022-12-17T23:24:06.640Z,-3.13
2022-12-17T23:26:38.004Z,-3.35
2022-12-17T23:29:19.158Z,-3.46
2022-12-17T23:31:49.241Z,-3.54
2022-12-17T23:34:19.124Z,-3.54
2022-12-17T23:36:49.944Z,-3.46
2022-12-17T23:39:19.588Z,-3.45
2022-12-17T23:41:48.884Z,-3.45
2022-12-17T23:44:18.751Z,-3.47
2022-12-17T23:46:48.167Z,-3.54
2022-12-17T23:49:17.958Z,-3.56
2022-12-17T23:51:48.717Z,-3.59
2022-12-17T23:54:18.354Z,-3.57
2022-12-17T23:56:48.270Z,-3.58
2022-12-17T23:59:17.927Z,-3.63
